Polar Endurance — WDG2085 — position and weather

sailwx.info

Track history (hours):
 
Tides and Currents Weather Stations Pressure Air Temp Water Temp Dewpoint Dewpoint Depression Visibility Wind Speed Wind Dir Waves Ship Positions

Polar Endurance

Owner: Dunlap Towing Co., LaConner, WA. More information available from US FCC via Universal Licensing System and Coast Guard Vessel Documentation Center.

Last reported at 2016-Sep-17 19:04 UTC. Time now 2016-Dec-05 02:25 UTC.
Position N 47°59' W 122°13'.
Warning: this ship's position is months out of date.

Length 37 m; draft 4.8 m.

Type: Tow > 200 m length. MMSI: 303144000.

Date/timePositionNaut miles runAvg speedWind from/ knotsBaromVisibWave heightAir tempDewpointWater temp
2016-Sep-17 19:04N 47°59' W 122°13'17 3.2
2016-Sep-17 13:33N 47°44' W 122°27'5 5.2
2016-Sep-17 12:33N 47°50' W 122°28'13 6.1
2016-Sep-17 10:25N 48°01' W 122°38'6 6.6
2016-Sep-17 09:26N 48°07' W 122°41'24 6.2
2016-Sep-17 05:31N 48°12' W 123°17'4 4.4
2016-Sep-17 04:33N 48°12' W 123°23'19 4.7
2016-Sep-17 00:32N 48°12' W 123°52'51 7.2
2016-Sep-16 17:32N 48°29' W 125°03'14 6.8
2016-Sep-16 15:28N 48°37' W 125°20'19 6.6
2016-Sep-16 12:33N 48°49' W 125°43'22 6.9
2016-Sep-16 09:25N 49°02' W 126°10'  
2016-Sep-11 22:33N 58°18' W 135°45'6 6.4
2016-Sep-11 21:33N 58°17' W 135°57'6 6.2
2016-Sep-11 20:33N 58°15' W 136°09'  
Track history (hours):
 
Tides and Currents Weather Stations Pressure Air Temp Water Temp Dewpoint Dewpoint Depression Visibility Wind Speed Wind Dir Waves Ship Positions

Polar Endurance

Owner: Dunlap Towing Co., LaConner, WA. More information available from US FCC via Universal Licensing System and Coast Guard Vessel Documentation Center.

Last reported at 2016-Sep-17 19:04 UTC. Time now 2016-Dec-05 02:25 UTC.
Position N 47°59' W 122°13'.
Warning: this ship's position is months out of date.

Length 37 m; draft 4.8 m.

Type: Tow > 200 m length. MMSI: 303144000.

Date/timePositionNaut miles runAvg speedWind from/ knotsBaromVisibWave heightAir tempDewpointWater temp
2016-Sep-17 19:04N 47°59' W 122°13'17 3.2
2016-Sep-17 13:33N 47°44' W 122°27'5 5.2
2016-Sep-17 12:33N 47°50' W 122°28'13 6.1
2016-Sep-17 10:25N 48°01' W 122°38'6 6.6
2016-Sep-17 09:26N 48°07' W 122°41'24 6.2
2016-Sep-17 05:31N 48°12' W 123°17'4 4.4
2016-Sep-17 04:33N 48°12' W 123°23'19 4.7
2016-Sep-17 00:32N 48°12' W 123°52'51 7.2
2016-Sep-16 17:32N 48°29' W 125°03'14 6.8
2016-Sep-16 15:28N 48°37' W 125°20'19 6.6
2016-Sep-16 12:33N 48°49' W 125°43'22 6.9
2016-Sep-16 09:25N 49°02' W 126°10'  
2016-Sep-11 22:33N 58°18' W 135°45'6 6.4
2016-Sep-11 21:33N 58°17' W 135°57'6 6.2
2016-Sep-11 20:33N 58°15' W 136°09'  

Dump ship's entire track history